Leon, Oklahoma
Current Conditions -  °F | °C
As of 4:15 PM on Sunday 25 Jan 2015 (Local Time) from KGLE Reporting Station
Clear Clear  
Wind Chill: 61°   Ceiling: Unl
Heat Index: 61°   Visibility: 10mi
Dew Point: 23°   Wind: 22mph
Humidity: 23%   Direction: 320°NW
Pressure: 30.06"   Gusts: 28mph
Location:  33.88°N, 97.43°W
Report Text: KGLE 252215Z AUTO 32019G24KT 10SM CLR 16/M05 A3006 RMK AO2 T01611052
Loading
Personal Weather Stations






























Interactive Weather Map New forecast layout! Learn more

10-Day Weather Forecast

Advertisements
Track Severe Weather on mobile